sensor_id;sensor_type;location;lat;lon;timestamp;pressure;altitude;pressure_sealevel;temperature;humidity
40954;BME280;26686;50.130;8.710;2023-05-12T00:04:05;99888.13;;;14.57;93.24
40954;BME280;26686;50.130;8.710;2023-05-12T00:09:07;99891.09;;;14.54;93.76
40954;BME280;26686;50.130;8.710;2023-05-12T00:14:09;99898.44;;;14.52;94.08
40954;BME280;26686;50.130;8.710;2023-05-12T00:19:11;99895.59;;;14.53;95.09
40954;BME280;26686;50.130;8.710;2023-05-12T00:24:13;99904.50;;;14.54;94.46
40954;BME280;26686;50.130;8.710;2023-05-12T00:29:15;99892.09;;;14.53;95.26
40954;BME280;26686;50.130;8.710;2023-05-12T00:34:16;99892.09;;;14.53;94.57
40954;BME280;26686;50.130;8.710;2023-05-12T00:39:17;99885.38;;;14.48;95.11
40954;BME280;26686;50.130;8.710;2023-05-12T00:44:19;99885.38;;;14.48;94.76
40954;BME280;26686;50.130;8.710;2023-05-12T00:49:20;99883.38;;;14.50;94.55
40954;BME280;26686;50.130;8.710;2023-05-12T00:54:22;99877.28;;;14.40;95.05
40954;BME280;26686;50.130;8.710;2023-05-12T00:59:23;99867.72;;;14.38;94.73
40954;BME280;26686;50.130;8.710;2023-05-12T01:04:25;99879.31;;;14.38;94.35
40954;BME280;26686;50.130;8.710;2023-05-12T01:09:26;99884.94;;;14.35;95.22
40954;BME280;26686;50.130;8.710;2023-05-12T01:14:28;99890.25;;;14.27;95.47
40954;BME280;26686;50.130;8.710;2023-05-12T01:19:51;99888.22;;;14.21;96.81
40954;BME280;26686;50.130;8.710;2023-05-12T01:24:54;99901.28;;;14.24;96.88
40954;BME280;26686;50.130;8.710;2023-05-12T01:29:59;99902.50;;;14.29;96.30
40954;BME280;26686;50.130;8.710;2023-05-12T01:35:01;99910.38;;;14.31;96.74
40954;BME280;26686;50.130;8.710;2023-05-12T01:40:03;99908.31;;;14.25;95.92
40954;BME280;26686;50.130;8.710;2023-05-12T01:45:06;99922.34;;;14.19;95.33
40954;BME280;26686;50.130;8.710;2023-05-12T01:50:08;99919.94;;;14.15;95.26
40954;BME280;26686;50.130;8.710;2023-05-12T01:55:09;99917.88;;;14.09;94.84
40954;BME280;26686;50.130;8.710;2023-05-12T02:00:11;99925.22;;;14.07;95.30
40954;BME280;26686;50.130;8.710;2023-05-12T02:05:13;99937.84;;;14.15;95.49
40954;BME280;26686;50.130;8.710;2023-05-12T02:10:14;99926.63;;;14.11;95.65
40954;BME280;26686;50.130;8.710;2023-05-12T02:15:16;99930.28;;;14.10;96.30
40954;BME280;26686;50.130;8.710;2023-05-12T02:20:17;99933.63;;;14.12;95.28
40954;BME280;26686;50.130;8.710;2023-05-12T02:25:19;99944.34;;;14.12;94.12
40954;BME280;26686;50.130;8.710;2023-05-12T02:30:21;99945.09;;;14.05;93.09
40954;BME280;26686;50.130;8.710;2023-05-12T02:35:23;99942.22;;;13.98;93.64
40954;BME280;26686;50.130;8.710;2023-05-12T02:40:24;99950.88;;;13.92;92.82
40954;BME280;26686;50.130;8.710;2023-05-12T02:45:25;99944.81;;;13.90;92.44
40954;BME280;26686;50.130;8.710;2023-05-12T02:50:27;99943.59;;;13.84;93.60
40954;BME280;26686;50.130;8.710;2023-05-12T02:55:28;99944.28;;;13.86;94.44
40954;BME280;26686;50.130;8.710;2023-05-12T03:00:30;99942.84;;;13.92;94.28
40954;BME280;26686;50.130;8.710;2023-05-12T03:05:31;99949.25;;;13.99;94.14
40954;BME280;26686;50.130;8.710;2023-05-12T03:10:33;99944.19;;;13.96;94.09
40954;BME280;26686;50.130;8.710;2023-05-12T03:15:34;99946.72;;;13.97;94.41
40954;BME280;26686;50.130;8.710;2023-05-12T03:20:36;99952.63;;;14.01;94.70
40954;BME280;26686;50.130;8.710;2023-05-12T03:25:38;99941.66;;;13.94;94.59
40954;BME280;26686;50.130;8.710;2023-05-12T03:30:39;99947.41;;;14.00;94.70
40954;BME280;26686;50.130;8.710;2023-05-12T03:35:40;99949.78;;;14.03;94.11
40954;BME280;26686;50.130;8.710;2023-05-12T03:40:42;99947.94;;;14.03;94.15
40954;BME280;26686;50.130;8.710;2023-05-12T03:45:44;99943.59;;;14.02;93.88
40954;BME280;26686;50.130;8.710;2023-05-12T03:50:45;99934.03;;;14.00;93.76
40954;BME280;26686;50.130;8.710;2023-05-12T03:55:48;99935.56;;;14.02;94.00
40954;BME280;26686;50.130;8.710;2023-05-12T04:00:50;99937.38;;;14.02;93.57
40954;BME280;26686;50.130;8.710;2023-05-12T04:05:56;99945.25;;;14.03;93.65
40954;BME280;26686;50.130;8.710;2023-05-12T04:10:59;99948.09;;;14.02;93.57
40954;BME280;26686;50.130;8.710;2023-05-12T04:16:01;99951.63;;;14.02;94.02
40954;BME280;26686;50.130;8.710;2023-05-12T04:21:02;99954.16;;;14.04;93.71
40954;BME280;26686;50.130;8.710;2023-05-12T04:26:04;99966.38;;;14.06;92.95
40954;BME280;26686;50.130;8.710;2023-05-12T04:31:05;99962.19;;;14.04;92.23
40954;BME280;26686;50.130;8.710;2023-05-12T04:36:07;99965.69;;;14.04;92.59
40954;BME280;26686;50.130;8.710;2023-05-12T04:41:08;99964.69;;;14.05;92.87
40954;BME280;26686;50.130;8.710;2023-05-12T04:46:10;99973.41;;;14.07;92.60
40954;BME280;26686;50.130;8.710;2023-05-12T04:51:11;99973.41;;;14.07;91.60
40954;BME280;26686;50.130;8.710;2023-05-12T04:56:12;99983.13;;;14.08;92.36
40954;BME280;26686;50.130;8.710;2023-05-12T05:01:14;99993.38;;;14.13;92.99
40954;BME280;26686;50.130;8.710;2023-05-12T05:06:16;99998.41;;;14.16;92.04
40954;BME280;26686;50.130;8.710;2023-05-12T05:11:17;99998.88;;;14.11;92.26
40954;BME280;26686;50.130;8.710;2023-05-12T05:16:19;99997.03;;;14.12;91.43
40954;BME280;26686;50.130;8.710;2023-05-12T05:21:21;100004.91;;;14.13;89.78
40954;BME280;26686;50.130;8.710;2023-05-12T05:26:22;100018.97;;;14.15;90.79
40954;BME280;26686;50.130;8.710;2023-05-12T05:31:25;100018.97;;;14.15;89.89
40954;BME280;26686;50.130;8.710;2023-05-12T05:36:29;100014.94;;;14.11;90.37
40954;BME280;26686;50.130;8.710;2023-05-12T05:41:32;100024.31;;;14.15;90.66
40954;BME280;26686;50.130;8.710;2023-05-12T05:46:33;100022.03;;;14.21;90.67
40954;BME280;26686;50.130;8.710;2023-05-12T05:51:34;100033.75;;;14.20;89.88
40954;BME280;26686;50.130;8.710;2023-05-12T05:56:36;100021.06;;;14.22;89.56
40954;BME280;26686;50.130;8.710;2023-05-12T06:01:37;100027.78;;;14.26;89.86
40954;BME280;26686;50.130;8.710;2023-05-12T06:06:39;100038.03;;;14.30;89.46
40954;BME280;26686;50.130;8.710;2023-05-12T06:11:41;100053.63;;;14.35;89.06
40954;BME280;26686;50.130;8.710;2023-05-12T06:16:42;100051.56;;;14.29;88.91
40954;BME280;26686;50.130;8.710;2023-05-12T06:21:43;100061.13;;;14.31;89.31
40954;BME280;26686;50.130;8.710;2023-05-12T06:26:45;100063.13;;;14.29;88.69
40954;BME280;26686;50.130;8.710;2023-05-12T06:31:47;100071.38;;;14.36;89.81
40954;BME280;26686;50.130;8.710;2023-05-12T06:36:48;100072.09;;;14.38;89.15
40954;BME280;26686;50.130;8.710;2023-05-12T06:41:49;100064.72;;;14.40;88.85
40954;BME280;26686;50.130;8.710;2023-05-12T06:46:51;100069.16;;;14.49;88.93
40954;BME280;26686;50.130;8.710;2023-05-12T06:51:53;100071.94;;;14.58;88.87
40954;BME280;26686;50.130;8.710;2023-05-12T06:56:54;100066.16;;;14.62;87.84
40954;BME280;26686;50.130;8.710;2023-05-12T07:01:55;100069.72;;;14.71;87.35
40954;BME280;26686;50.130;8.710;2023-05-12T07:06:57;100076.25;;;14.69;86.45
40954;BME280;26686;50.130;8.710;2023-05-12T07:11:58;100083.97;;;14.72;87.41
40954;BME280;26686;50.130;8.710;2023-05-12T07:17:00;100080.06;;;14.66;87.09
40954;BME280;26686;50.130;8.710;2023-05-12T07:22:02;100081.03;;;14.65;87.32
40954;BME280;26686;50.130;8.710;2023-05-12T07:27:04;100082.28;;;14.71;86.28
40954;BME280;26686;50.130;8.710;2023-05-12T07:32:06;100082.97;;;14.73;87.09
40954;BME280;26686;50.130;8.710;2023-05-12T07:37:07;100096.06;;;14.76;87.11
40954;BME280;26686;50.130;8.710;2023-05-12T07:42:08;100094.88;;;14.78;88.65
40954;BME280;26686;50.130;8.710;2023-05-12T07:47:11;100087.00;;;14.77;88.33
40954;BME280;26686;50.130;8.710;2023-05-12T07:52:12;100082.81;;;14.74;86.89
40954;BME280;26686;50.130;8.710;2023-05-12T07:57:14;100082.66;;;14.76;86.59
40954;BME280;26686;50.130;8.710;2023-05-12T08:02:15;100086.38;;;14.83;86.45
40954;BME280;26686;50.130;8.710;2023-05-12T08:07:17;100074.75;;;14.92;86.09
40954;BME280;26686;50.130;8.710;2023-05-12T08:12:19;100082.53;;;15.03;86.22
40954;BME280;26686;50.130;8.710;2023-05-12T08:17:20;100086.13;;;15.12;85.86
40954;BME280;26686;50.130;8.710;2023-05-12T08:22:21;100087.16;;;15.19;84.81
40954;BME280;26686;50.130;8.710;2023-05-12T08:27:23;100076.88;;;15.33;84.75
40954;BME280;26686;50.130;8.710;2023-05-12T08:32:24;100076.25;;;15.47;84.87
40954;BME280;26686;50.130;8.710;2023-05-12T08:37:26;100077.66;;;15.60;83.83
40954;BME280;26686;50.130;8.710;2023-05-12T08:42:39;100083.41;;;15.73;83.41
40954;BME280;26686;50.130;8.710;2023-05-12T08:47:43;100080.72;;;15.73;81.35
40954;BME280;26686;50.130;8.710;2023-05-12T08:52:47;100087.34;;;15.79;81.58
40954;BME280;26686;50.130;8.710;2023-05-12T08:57:48;100089.84;;;15.80;81.02
40954;BME280;26686;50.130;8.710;2023-05-12T09:02:51;100082.00;;;15.87;81.41
40954;BME280;26686;50.130;8.710;2023-05-12T09:07:55;100085.88;;;15.93;80.17
40954;BME280;26686;50.130;8.710;2023-05-12T09:13:02;100085.91;;;16.01;79.80
40954;BME280;26686;50.130;8.710;2023-05-12T09:18:03;100082.75;;;16.05;80.84
40954;BME280;26686;50.130;8.710;2023-05-12T09:23:19;100084.28;;;16.16;80.75
40954;BME280;26686;50.130;8.710;2023-05-12T09:28:21;100088.34;;;16.37;78.01
40954;BME280;26686;50.130;8.710;2023-05-12T09:33:22;100071.25;;;16.54;77.48
40954;BME280;26686;50.130;8.710;2023-05-12T09:38:25;100072.91;;;16.72;76.28
40954;BME280;26686;50.130;8.710;2023-05-12T09:43:26;100068.88;;;16.84;74.85
40954;BME280;26686;50.130;8.710;2023-05-12T09:48:28;100065.88;;;17.04;74.40
40954;BME280;26686;50.130;8.710;2023-05-12T09:53:30;100071.75;;;17.16;73.00
40954;BME280;26686;50.130;8.710;2023-05-12T09:58:32;100068.19;;;17.23;72.71
40954;BME280;26686;50.130;8.710;2023-05-12T10:03:35;100082.13;;;17.35;72.72
40954;BME280;26686;50.130;8.710;2023-05-12T10:08:43;100083.81;;;17.36;72.64
40954;BME280;26686;50.130;8.710;2023-05-12T10:13:47;100082.66;;;17.22;71.29
40954;BME280;26686;50.130;8.710;2023-05-12T10:18:49;100076.63;;;17.12;72.83
40954;BME280;26686;50.130;8.710;2023-05-12T10:23:51;100075.63;;;17.13;71.40
40954;BME280;26686;50.130;8.710;2023-05-12T10:28:54;100084.66;;;17.20;71.56
40954;BME280;26686;50.130;8.710;2023-05-12T10:33:57;100086.38;;;17.13;69.98
40954;BME280;26686;50.130;8.710;2023-05-12T10:39:05;100079.97;;;17.14;67.99
40954;BME280;26686;50.130;8.710;2023-05-12T10:44:07;100081.53;;;17.08;68.92
40954;BME280;26686;50.130;8.710;2023-05-12T10:49:10;100078.66;;;17.02;69.66
40954;BME280;26686;50.130;8.710;2023-05-12T10:54:24;100082.88;;;17.04;71.80
40954;BME280;26686;50.130;8.710;2023-05-12T10:59:26;100081.69;;;16.99;76.13
40954;BME280;26686;50.130;8.710;2023-05-12T11:04:45;100088.06;;;17.06;77.32
40954;BME280;26686;50.130;8.710;2023-05-12T11:09:48;100096.47;;;17.03;78.49
40954;BME280;26686;50.130;8.710;2023-05-12T11:15:00;100093.94;;;17.09;79.10
40954;BME280;26686;50.130;8.710;2023-05-12T11:20:02;100092.09;;;17.10;80.63
40954;BME280;26686;50.130;8.710;2023-05-12T11:25:10;100093.94;;;17.18;81.92
40954;BME280;26686;50.130;8.710;2023-05-12T11:30:12;100089.03;;;17.21;82.22
40954;BME280;26686;50.130;8.710;2023-05-12T11:35:16;100096.94;;;17.23;81.27
40954;BME280;26686;50.130;8.710;2023-05-12T11:40:19;100109.88;;;17.27;80.18
40954;BME280;26686;50.130;8.710;2023-05-12T11:45:27;100111.91;;;17.25;75.84
40954;BME280;26686;50.130;8.710;2023-05-12T11:50:29;100109.91;;;17.19;72.19
40954;BME280;26686;50.130;8.710;2023-05-12T11:55:31;100109.91;;;17.11;69.02
40954;BME280;26686;50.130;8.710;2023-05-12T12:00:34;100119.66;;;17.04;67.69
40954;BME280;26686;50.130;8.710;2023-05-12T12:05:36;100133.78;;;16.89;69.05
40954;BME280;26686;50.130;8.710;2023-05-12T12:10:41;100129.38;;;16.80;69.88
40954;BME280;26686;50.130;8.710;2023-05-12T12:15:43;100129.88;;;16.84;72.64
40954;BME280;26686;50.130;8.710;2023-05-12T12:20:45;100125.88;;;16.88;74.62
40954;BME280;26686;50.130;8.710;2023-05-12T12:25:47;100118.66;;;16.96;74.66
40954;BME280;26686;50.130;8.710;2023-05-12T12:30:49;100116.63;;;17.07;75.82
40954;BME280;26686;50.130;8.710;2023-05-12T12:35:51;100117.28;;;17.17;75.84
40954;BME280;26686;50.130;8.710;2023-05-12T12:40:52;100121.50;;;17.28;74.37
40954;BME280;26686;50.130;8.710;2023-05-12T12:45:53;100125.16;;;17.43;74.02
40954;BME280;26686;50.130;8.710;2023-05-12T12:50:55;100120.63;;;17.44;70.48
40954;BME280;26686;50.130;8.710;2023-05-12T12:55:56;100119.91;;;17.50;68.96
40954;BME280;26686;50.130;8.710;2023-05-12T13:00:58;100128.34;;;17.55;70.15
40954;BME280;26686;50.130;8.710;2023-05-12T13:05:59;100122.25;;;17.61;70.93
40954;BME280;26686;50.130;8.710;2023-05-12T13:11:00;100119.88;;;17.66;72.27
40954;BME280;26686;50.130;8.710;2023-05-12T13:16:02;100120.38;;;17.70;70.57
40954;BME280;26686;50.130;8.710;2023-05-12T13:21:04;100109.09;;;17.75;67.25
40954;BME280;26686;50.130;8.710;2023-05-12T13:26:06;100111.91;;;17.81;67.84
40954;BME280;26686;50.130;8.710;2023-05-12T13:31:07;100112.91;;;17.89;67.63
40954;BME280;26686;50.130;8.710;2023-05-12T13:36:09;100109.06;;;17.91;67.20
40954;BME280;26686;50.130;8.710;2023-05-12T13:41:10;100113.75;;;17.97;66.51
40954;BME280;26686;50.130;8.710;2023-05-12T13:46:12;100108.66;;;18.02;66.95
40954;BME280;26686;50.130;8.710;2023-05-12T13:51:13;100107.66;;;18.04;68.14
40954;BME280;26686;50.130;8.710;2023-05-12T13:56:15;100118.91;;;18.07;67.98
40954;BME280;26686;50.130;8.710;2023-05-12T14:01:19;100105.31;;;18.00;67.02
40954;BME280;26686;50.130;8.710;2023-05-12T14:06:21;100120.28;;;18.03;67.27
40954;BME280;26686;50.130;8.710;2023-05-12T14:11:22;100121.13;;;18.04;66.49
40954;BME280;26686;50.130;8.710;2023-05-12T14:16:24;100121.06;;;18.12;65.28
40954;BME280;26686;50.130;8.710;2023-05-12T14:21:25;100121.03;;;18.20;65.81
40954;BME280;26686;50.130;8.710;2023-05-12T14:26:27;100127.34;;;18.35;63.57
40954;BME280;26686;50.130;8.710;2023-05-12T14:31:28;100122.94;;;18.43;63.62
40954;BME280;26686;50.130;8.710;2023-05-12T14:36:29;100124.56;;;18.52;61.87
40954;BME280;26686;50.130;8.710;2023-05-12T14:41:31;100124.81;;;18.65;59.99
40954;BME280;26686;50.130;8.710;2023-05-12T14:46:33;100117.69;;;18.72;59.32
40954;BME280;26686;50.130;8.710;2023-05-12T14:51:34;100129.72;;;18.85;59.77
40954;BME280;26686;50.130;8.710;2023-05-12T14:56:35;100123.97;;;18.88;54.19
40954;BME280;26686;50.130;8.710;2023-05-12T15:01:37;100130.22;;;18.88;54.21
40954;BME280;26686;50.130;8.710;2023-05-12T15:06:38;100123.97;;;18.88;56.03
40954;BME280;26686;50.130;8.710;2023-05-12T15:11:40;100126.63;;;18.96;54.31
40954;BME280;26686;50.130;8.710;2023-05-12T15:16:45;100125.88;;;18.79;53.56
40954;BME280;26686;50.130;8.710;2023-05-12T15:21:47;100123.47;;;18.61;56.91
40954;BME280;26686;50.130;8.710;2023-05-12T15:26:48;100123.91;;;18.50;56.83
40954;BME280;26686;50.130;8.710;2023-05-12T15:31:50;100130.31;;;18.49;56.48
40954;BME280;26686;50.130;8.710;2023-05-12T15:36:51;100144.50;;;18.43;57.75
40954;BME280;26686;50.130;8.710;2023-05-12T15:41:53;100136.13;;;18.37;58.07
40954;BME280;26686;50.130;8.710;2023-05-12T15:46:54;100141.19;;;18.32;59.27
40954;BME280;26686;50.130;8.710;2023-05-12T15:51:56;100147.91;;;18.36;59.31
40954;BME280;26686;50.130;8.710;2023-05-12T15:56:57;100147.84;;;18.45;60.88
40954;BME280;26686;50.130;8.710;2023-05-12T16:01:59;100149.53;;;18.46;59.90
40954;BME280;26686;50.130;8.710;2023-05-12T16:07:01;100151.94;;;18.41;59.59
40954;BME280;26686;50.130;8.710;2023-05-12T16:12:02;100162.16;;;18.45;59.84
40954;BME280;26686;50.130;8.710;2023-05-12T16:17:07;100163.28;;;18.51;61.32
40954;BME280;26686;50.130;8.710;2023-05-12T16:22:08;100164.69;;;18.47;60.83
40954;BME280;26686;50.130;8.710;2023-05-12T16:27:10;100166.22;;;18.41;62.16
40954;BME280;26686;50.130;8.710;2023-05-12T16:32:11;100173.16;;;18.35;61.63
40954;BME280;26686;50.130;8.710;2023-05-12T16:37:13;100165.13;;;18.27;62.28
40954;BME280;26686;50.130;8.710;2023-05-12T16:42:14;100171.69;;;18.25;62.58
40954;BME280;26686;50.130;8.710;2023-05-12T16:47:16;100178.63;;;18.19;62.29
40954;BME280;26686;50.130;8.710;2023-05-12T16:52:18;100178.97;;;18.16;62.56
40954;BME280;26686;50.130;8.710;2023-05-12T16:57:19;100175.97;;;18.11;62.37
40954;BME280;26686;50.130;8.710;2023-05-12T17:02:21;100175.34;;;18.00;62.99
40954;BME280;26686;50.130;8.710;2023-05-12T17:07:22;100182.59;;;17.92;62.78
40954;BME280;26686;50.130;8.710;2023-05-12T17:12:24;100186.47;;;17.89;63.73
40954;BME280;26686;50.130;8.710;2023-05-12T17:17:25;100200.44;;;17.93;63.47
40954;BME280;26686;50.130;8.710;2023-05-12T17:22:27;100199.41;;;17.85;63.62
40954;BME280;26686;50.130;8.710;2023-05-12T17:27:28;100189.34;;;17.71;63.76
40954;BME280;26686;50.130;8.710;2023-05-12T17:32:30;100193.25;;;17.69;64.56
40954;BME280;26686;50.130;8.710;2023-05-12T17:37:33;100187.16;;;17.66;64.52
40954;BME280;26686;50.130;8.710;2023-05-12T17:42:34;100197.94;;;17.66;64.15
40954;BME280;26686;50.130;8.710;2023-05-12T17:47:35;100195.94;;;17.60;64.55
40954;BME280;26686;50.130;8.710;2023-05-12T17:52:37;100191.91;;;17.48;65.06
40954;BME280;26686;50.130;8.710;2023-05-12T17:57:39;100199.00;;;17.49;64.85
40954;BME280;26686;50.130;8.710;2023-05-12T18:02:40;100200.16;;;17.46;64.80
40954;BME280;26686;50.130;8.710;2023-05-12T18:07:42;100201.66;;;17.41;66.23
40954;BME280;26686;50.130;8.710;2023-05-12T18:12:43;100216.66;;;17.43;66.13
40954;BME280;26686;50.130;8.710;2023-05-12T18:17:45;100217.66;;;17.42;66.50
40954;BME280;26686;50.130;8.710;2023-05-12T18:22:46;100225.22;;;17.39;66.57
40954;BME280;26686;50.130;8.710;2023-05-12T18:27:48;100238.69;;;17.39;67.01
40954;BME280;26686;50.130;8.710;2023-05-12T18:32:49;100241.38;;;17.39;67.56
40954;BME280;26686;50.130;8.710;2023-05-12T18:37:51;100242.88;;;17.33;67.69
40954;BME280;26686;50.130;8.710;2023-05-12T18:42:53;100244.03;;;17.30;68.08
40954;BME280;26686;50.130;8.710;2023-05-12T18:47:54;100244.38;;;17.27;68.19
40954;BME280;26686;50.130;8.710;2023-05-12T18:52:56;100253.16;;;17.29;68.73
40954;BME280;26686;50.130;8.710;2023-05-12T18:57:57;100266.59;;;17.29;67.98
40954;BME280;26686;50.130;8.710;2023-05-12T19:02:59;100265.91;;;17.27;69.17
40954;BME280;26686;50.130;8.710;2023-05-12T19:08:00;100264.91;;;17.28;69.72
40954;BME280;26686;50.130;8.710;2023-05-12T19:13:02;100271.97;;;17.29;69.76
40954;BME280;26686;50.130;8.710;2023-05-12T19:18:04;100287.09;;;17.22;70.09
40954;BME280;26686;50.130;8.710;2023-05-12T19:23:05;100291.78;;;17.20;69.16
40954;BME280;26686;50.130;8.710;2023-05-12T19:28:07;100290.28;;;17.18;68.98
40954;BME280;26686;50.130;8.710;2023-05-12T19:33:10;100296.66;;;17.08;68.47
40954;BME280;26686;50.130;8.710;2023-05-12T19:38:15;100305.88;;;17.06;67.52
40954;BME280;26686;50.130;8.710;2023-05-12T19:43:18;100287.19;;;16.96;67.65
40954;BME280;26686;50.130;8.710;2023-05-12T19:48:20;100295.09;;;16.89;68.98
40954;BME280;26686;50.130;8.710;2023-05-12T19:53:21;100285.44;;;16.78;69.84
40954;BME280;26686;50.130;8.710;2023-05-12T19:58:23;100298.34;;;16.75;69.97
40954;BME280;26686;50.130;8.710;2023-05-12T20:03:25;100299.78;;;16.53;70.13
40954;BME280;26686;50.130;8.710;2023-05-12T20:08:27;100284.63;;;16.43;71.51
40954;BME280;26686;50.130;8.710;2023-05-12T20:13:29;100303.28;;;16.45;70.80
40954;BME280;26686;50.130;8.710;2023-05-12T20:18:31;100301.84;;;15.98;71.43
40954;BME280;26686;50.130;8.710;2023-05-12T20:23:33;100305.72;;;16.04;70.55
40954;BME280;26686;50.130;8.710;2023-05-12T20:28:35;100310.16;;;16.13;70.41
40954;BME280;26686;50.130;8.710;2023-05-12T20:33:36;100297.22;;;16.08;70.48
40954;BME280;26686;50.130;8.710;2023-05-12T20:38:38;100318.78;;;15.99;71.00
40954;BME280;26686;50.130;8.710;2023-05-12T20:43:40;100315.41;;;15.97;69.20
40954;BME280;26686;50.130;8.710;2023-05-12T20:48:41;100308.91;;;15.99;68.85
40954;BME280;26686;50.130;8.710;2023-05-12T20:53:43;100301.25;;;15.86;67.75
40954;BME280;26686;50.130;8.710;2023-05-12T20:58:44;100300.56;;;15.84;68.17
40954;BME280;26686;50.130;8.710;2023-05-12T21:03:46;100320.03;;;15.86;67.30
40954;BME280;26686;50.130;8.710;2023-05-12T21:08:47;100318.38;;;15.85;67.74
40954;BME280;26686;50.130;8.710;2023-05-12T21:13:49;100308.22;;;15.79;66.75
40954;BME280;26686;50.130;8.710;2023-05-12T21:18:51;100319.97;;;15.78;66.15
40954;BME280;26686;50.130;8.710;2023-05-12T21:23:52;100320.59;;;15.72;66.98
40954;BME280;26686;50.130;8.710;2023-05-12T21:28:54;100311.94;;;15.60;66.74
40954;BME280;26686;50.130;8.710;2023-05-12T21:33:55;100331.78;;;15.67;66.87
40954;BME280;26686;50.130;8.710;2023-05-12T21:38:58;100321.44;;;15.54;66.89
40954;BME280;26686;50.130;8.710;2023-05-12T21:43:59;100333.53;;;15.59;66.66
40954;BME280;26686;50.130;8.710;2023-05-12T21:49:01;100329.47;;;15.54;66.74
40954;BME280;26686;50.130;8.710;2023-05-12T21:54:03;100325.03;;;15.45;67.50
40954;BME280;26686;50.130;8.710;2023-05-12T21:59:04;100334.47;;;15.49;66.47
40954;BME280;26686;50.130;8.710;2023-05-12T22:04:05;100335.38;;;15.40;67.15
40954;BME280;26686;50.130;8.710;2023-05-12T22:09:08;100333.53;;;15.41;67.23
40954;BME280;26686;50.130;8.710;2023-05-12T22:14:10;100346.41;;;15.37;67.52
40954;BME280;26686;50.130;8.710;2023-05-12T22:19:11;100345.72;;;15.35;67.71
40954;BME280;26686;50.130;8.710;2023-05-12T22:24:13;100329.84;;;15.24;67.51
40954;BME280;26686;50.130;8.710;2023-05-12T22:29:15;100341.44;;;15.24;67.65
40954;BME280;26686;50.130;8.710;2023-05-12T22:34:16;100359.06;;;15.27;68.30
40954;BME280;26686;50.130;8.710;2023-05-12T22:39:17;100367.38;;;15.24;68.30
40954;BME280;26686;50.130;8.710;2023-05-12T22:44:20;100370.38;;;15.20;68.25
40954;BME280;26686;50.130;8.710;2023-05-12T22:49:21;100368.84;;;15.18;68.05
40954;BME280;26686;50.130;8.710;2023-05-12T22:54:22;100349.16;;;15.09;67.58
40954;BME280;26686;50.130;8.710;2023-05-12T22:59:26;100372.66;;;15.15;67.60
40954;BME280;26686;50.130;8.710;2023-05-12T23:04:27;100383.69;;;15.12;68.40
40954;BME280;26686;50.130;8.710;2023-05-12T23:09:30;100404.53;;;15.18;67.50
40954;BME280;26686;50.130;8.710;2023-05-12T23:14:32;100388.63;;;15.07;67.90
40954;BME280;26686;50.130;8.710;2023-05-12T23:19:33;100405.00;;;15.14;68.25
40954;BME280;26686;50.130;8.710;2023-05-12T23:24:35;100390.34;;;15.08;68.21
40954;BME280;26686;50.130;8.710;2023-05-12T23:29:37;100365.22;;;15.09;67.95
40954;BME280;26686;50.130;8.710;2023-05-12T23:34:39;100352.13;;;15.06;68.60
40954;BME280;26686;50.130;8.710;2023-05-12T23:39:41;100331.06;;;15.11;68.04
40954;BME280;26686;50.130;8.710;2023-05-12T23:44:42;100311.75;;;15.08;67.50
40954;BME280;26686;50.130;8.710;2023-05-12T23:49:44;100317.81;;;15.10;69.53
40954;BME280;26686;50.130;8.710;2023-05-12T23:54:45;100344.47;;;15.11;69.58
40954;BME280;26686;50.130;8.710;2023-05-12T23:59:47;100333.06;;;15.09;70.10
